Kapfenberg, Austria
Current Conditions -  °F | °C
As of 5:20 PM on Friday 24 Oct 2014 (Local Time) from LOWG Reporting Station
Scattered Clouds Scattered Clouds  
Wind Chill: 54°   Ceiling: Unl
Heat Index: 54°   Visibility: 6mi
Dew Point: 41°   Wind: 5mph
Humidity: 62%   Direction: NA
Pressure: 30.06"   Gusts: NA
Location:  47.45°N, 15.29°E
Report Text: LOWG 241520Z VRB04KT 9999 SCT050 SCT075 12/05 Q1018 NOSIG
Loading
Personal Weather Stations






























Interactive Weather Map
Tropical Storm Tracking
New forecast layout! Learn more

10-Day Weather Forecast

Advertisements
Track Severe Weather on mobile